sensor_id;sensor_type;location;lat;lon;timestamp;pressure;altitude;pressure_sealevel;temperature;humidity
60433;BME280;46286;48.098;11.590;2022-09-16T00:01:19;94942.84;;;12.56;100.00
60433;BME280;46286;48.098;11.590;2022-09-16T00:03:47;94951.84;;;12.55;100.00
60433;BME280;46286;48.098;11.590;2022-09-16T00:06:20;94949.69;;;12.57;100.00
60433;BME280;46286;48.098;11.590;2022-09-16T00:08:47;94943.63;;;12.57;100.00
60433;BME280;46286;48.098;11.590;2022-09-16T00:11:13;94934.44;;;12.54;100.00
60433;BME280;46286;48.098;11.590;2022-09-16T00:13:39;94939.72;;;12.54;100.00
60433;BME280;46286;48.098;11.590;2022-09-16T00:16:11;94932.88;;;12.53;100.00
60433;BME280;46286;48.098;11.590;2022-09-16T00:18:37;94938.16;;;12.53;100.00
60433;BME280;46286;48.098;11.590;2022-09-16T00:21:06;94929.75;;;12.51;100.00
60433;BME280;46286;48.098;11.590;2022-09-16T00:23:32;94930.25;;;12.53;100.00
60433;BME280;46286;48.098;11.590;2022-09-16T00:25:57;94920.38;;;12.45;100.00
60433;BME280;46286;48.098;11.590;2022-09-16T00:28:23;94920.38;;;12.45;100.00
60433;BME280;46286;48.098;11.590;2022-09-16T00:30:49;94905.72;;;12.39;100.00
60433;BME280;46286;48.098;11.590;2022-09-16T00:33:14;94910.41;;;12.42;100.00
60433;BME280;46286;48.098;11.590;2022-09-16T00:35:40;94898.88;;;12.38;100.00
60433;BME280;46286;48.098;11.590;2022-09-16T00:38:06;94910.41;;;12.42;100.00
60433;BME280;46286;48.098;11.590;2022-09-16T00:40:32;94907.31;;;12.40;100.00
60433;BME280;46286;48.098;11.590;2022-09-16T00:42:57;94904.53;;;12.45;100.00
60433;BME280;46286;48.098;11.590;2022-09-16T00:45:25;94908.25;;;12.44;100.00
60433;BME280;46286;48.098;11.590;2022-09-16T00:48:05;94902.59;;;12.37;100.00
60433;BME280;46286;48.098;11.590;2022-09-16T00:50:40;94908.25;;;12.44;100.00
60433;BME280;46286;48.098;11.590;2022-09-16T00:53:12;94911.00;;;12.39;100.00
60433;BME280;46286;48.098;11.590;2022-09-16T00:55:39;94920.75;;;12.38;100.00
60433;BME280;46286;48.098;11.590;2022-09-16T00:58:14;94912.56;;;12.40;100.00
60433;BME280;46286;48.098;11.590;2022-09-16T01:00:42;94914.34;;;12.30;100.00
60433;BME280;46286;48.098;11.590;2022-09-16T01:03:08;94913.75;;;12.34;100.00
60433;BME280;46286;48.098;11.590;2022-09-16T01:05:35;94922.75;;;12.33;100.00
60433;BME280;46286;48.098;11.590;2022-09-16T01:08:02;94924.13;;;12.30;100.00
60433;BME280;46286;48.098;11.590;2022-09-16T01:10:27;94923.13;;;12.26;100.00
60433;BME280;46286;48.098;11.590;2022-09-16T01:13:00;94917.66;;;12.22;100.00
60433;BME280;46286;48.098;11.590;2022-09-16T01:15:36;94910.44;;;12.14;100.00
60433;BME280;46286;48.098;11.590;2022-09-16T01:21:01;94913.16;;;12.09;100.00
60433;BME280;46286;48.098;11.590;2022-09-16T01:34:18;94904.38;;;12.00;100.00
60433;BME280;46286;48.098;11.590;2022-09-16T01:37:02;94904.72;;;11.93;100.00
60433;BME280;46286;48.098;11.590;2022-09-16T01:39:48;94897.72;;;11.88;100.00
60433;BME280;46286;48.098;11.590;2022-09-16T01:48:40;94895.16;;;11.83;100.00
60433;BME280;46286;48.098;11.590;2022-09-16T01:51:13;94902.00;;;11.84;100.00
60433;BME280;46286;48.098;11.590;2022-09-16T01:56:28;94897.31;;;11.81;100.00
60433;BME280;46286;48.098;11.590;2022-09-16T01:59:07;94907.84;;;11.81;100.00
60433;BME280;46286;48.098;11.590;2022-09-16T02:01:39;94908.84;;;11.85;100.00
60433;BME280;46286;48.098;11.590;2022-09-16T02:04:16;94905.69;;;11.83;100.00
60433;BME280;46286;48.098;11.590;2022-09-16T02:06:44;94914.66;;;11.82;100.00
60433;BME280;46286;48.098;11.590;2022-09-16T02:09:17;94910.63;;;12.04;100.00
60433;BME280;46286;48.098;11.590;2022-09-16T02:11:46;94908.88;;;12.13;100.00
60433;BME280;46286;48.098;11.590;2022-09-16T02:14:17;94916.50;;;12.15;100.00
60433;BME280;46286;48.098;11.590;2022-09-16T02:16:59;94910.53;;;12.09;100.00
60433;BME280;46286;48.098;11.590;2022-09-16T02:19:36;94915.22;;;12.12;100.00
60433;BME280;46286;48.098;11.590;2022-09-16T02:22:08;94922.75;;;12.19;100.00
60433;BME280;46286;48.098;11.590;2022-09-16T02:24:37;94922.44;;;12.20;100.00
60433;BME280;46286;48.098;11.590;2022-09-16T02:27:04;94920.09;;;12.19;100.00
60433;BME280;46286;48.098;11.590;2022-09-16T02:29:40;94921.00;;;12.14;100.00
60433;BME280;46286;48.098;11.590;2022-09-16T02:32:07;94921.94;;;12.18;100.00
60433;BME280;46286;48.098;11.590;2022-09-16T02:34:39;94927.81;;;12.15;100.00
60433;BME280;46286;48.098;11.590;2022-09-16T02:37:22;94921.56;;;12.11;100.00
60433;BME280;46286;48.098;11.590;2022-09-16T02:39:52;94913.47;;;12.07;100.00
60433;BME280;46286;48.098;11.590;2022-09-16T02:42:20;94910.63;;;12.04;100.00
60433;BME280;46286;48.098;11.590;2022-09-16T02:44:46;94914.75;;;12.10;100.00
60433;BME280;46286;48.098;11.590;2022-09-16T02:47:13;94914.75;;;12.10;100.00
60433;BME280;46286;48.098;11.590;2022-09-16T02:57:29;94911.00;;;12.11;100.00
60433;BME280;46286;48.098;11.590;2022-09-16T02:59:54;94902.63;;;12.09;100.00
60433;BME280;46286;48.098;11.590;2022-09-16T03:02:20;94903.59;;;12.13;100.00
60433;BME280;46286;48.098;11.590;2022-09-16T03:04:46;94894.63;;;12.14;100.00
60433;BME280;46286;48.098;11.590;2022-09-16T03:07:13;94899.31;;;12.17;100.00
60433;BME280;46286;48.098;11.590;2022-09-16T03:09:42;94894.03;;;12.17;100.00
60433;BME280;46286;48.098;11.590;2022-09-16T03:13:16;94891.47;;;12.12;100.00
60433;BME280;46286;48.098;11.590;2022-09-16T03:15:39;94897.56;;;12.12;100.00
60433;BME280;46286;48.098;11.590;2022-09-16T03:21:16;94889.91;;;12.11;100.00
60433;BME280;46286;48.098;11.590;2022-09-16T03:26:46;94888.75;;;12.17;100.00
60433;BME280;46286;48.098;11.590;2022-09-16T03:29:34;94893.44;;;12.20;100.00
60433;BME280;46286;48.098;11.590;2022-09-16T03:37:23;94880.13;;;12.25;100.00
60433;BME280;46286;48.098;11.590;2022-09-16T03:39:51;94874.47;;;12.18;100.00
60433;BME280;46286;48.098;11.590;2022-09-16T03:42:18;94881.31;;;12.19;100.00
60433;BME280;46286;48.098;11.590;2022-09-16T03:44:44;94878.78;;;12.14;100.00
60433;BME280;46286;48.098;11.590;2022-09-16T03:47:10;94874.88;;;12.11;100.00
60433;BME280;46286;48.098;11.590;2022-09-16T03:49:36;94879.75;;;12.18;100.00
60433;BME280;46286;48.098;11.590;2022-09-16T03:52:02;94873.13;;;12.07;100.00
60433;BME280;46286;48.098;11.590;2022-09-16T03:54:30;94878.50;;;12.02;100.00
60433;BME280;46286;48.098;11.590;2022-09-16T03:56:56;94866.50;;;11.95;100.00
60433;BME280;46286;48.098;11.590;2022-09-16T03:59:21;94869.00;;;12.01;100.00
60433;BME280;46286;48.098;11.590;2022-09-16T04:01:47;94863.75;;;12.01;100.00
60433;BME280;46286;48.098;11.590;2022-09-16T04:04:12;94872.75;;;12.00;100.00
60433;BME280;46286;48.098;11.590;2022-09-16T04:06:38;94873.09;;;11.93;100.00
60433;BME280;46286;48.098;11.590;2022-09-16T04:09:04;94872.88;;;11.89;100.00
60433;BME280;46286;48.098;11.590;2022-09-16T04:11:31;94875.53;;;11.89;100.00
60433;BME280;46286;48.098;11.590;2022-09-16T04:13:57;94879.25;;;11.88;100.00
60433;BME280;46286;48.098;11.590;2022-09-16T04:16:24;94873.69;;;11.90;100.00
60433;BME280;46286;48.098;11.590;2022-09-16T04:18:50;94869.19;;;11.90;100.00
60433;BME280;46286;48.098;11.590;2022-09-16T04:21:16;94875.03;;;11.87;100.00
60433;BME280;46286;48.098;11.590;2022-09-16T04:23:42;94876.03;;;11.91;100.00
60433;BME280;46286;48.098;11.590;2022-09-16T04:26:09;94881.09;;;11.88;100.00
60433;BME280;46286;48.098;11.590;2022-09-16T04:28:34;94880.31;;;11.87;100.00
60433;BME280;46286;48.098;11.590;2022-09-16T04:31:02;94879.16;;;11.93;100.00
60433;BME280;46286;48.098;11.590;2022-09-16T04:33:29;94888.13;;;11.92;100.00
60433;BME280;46286;48.098;11.590;2022-09-16T04:36:08;94888.66;;;11.94;100.00
60433;BME280;46286;48.098;11.590;2022-09-16T04:38:35;94889.63;;;11.99;100.00
60433;BME280;46286;48.098;11.590;2022-09-16T04:41:06;94892.25;;;11.99;100.00
60433;BME280;46286;48.098;11.590;2022-09-16T04:43:32;94891.69;;;12.02;100.00
60433;BME280;46286;48.098;11.590;2022-09-16T04:45:58;94890.69;;;11.98;100.00
60433;BME280;46286;48.098;11.590;2022-09-16T04:48:24;94890.69;;;11.98;100.00
60433;BME280;46286;48.098;11.590;2022-09-16T04:50:53;94892.84;;;11.95;100.00
60433;BME280;46286;48.098;11.590;2022-09-16T04:53:19;94892.56;;;11.97;100.00
60433;BME280;46286;48.098;11.590;2022-09-16T04:55:46;94907.50;;;12.02;100.00
60433;BME280;46286;48.098;11.590;2022-09-16T04:58:12;94902.22;;;12.02;100.00
60433;BME280;46286;48.098;11.590;2022-09-16T05:00:38;94899.66;;;11.96;100.00
60433;BME280;46286;48.098;11.590;2022-09-16T05:03:04;94900.06;;;12.04;100.00
60433;BME280;46286;48.098;11.590;2022-09-16T05:05:29;94901.03;;;12.08;100.00
60433;BME280;46286;48.098;11.590;2022-09-16T05:07:55;94900.44;;;12.11;100.00
60433;BME280;46286;48.098;11.590;2022-09-16T05:10:20;94896.16;;;12.15;100.00
60433;BME280;46286;48.098;11.590;2022-09-16T05:12:52;94907.22;;;12.17;100.00
60433;BME280;46286;48.098;11.590;2022-09-16T05:15:18;94896.75;;;12.12;100.00
60433;BME280;46286;48.098;11.590;2022-09-16T05:17:43;94904.56;;;12.17;100.00
60433;BME280;46286;48.098;11.590;2022-09-16T05:20:10;94902.72;;;12.18;100.00
60433;BME280;46286;48.098;11.590;2022-09-16T05:22:36;94889.34;;;12.14;100.00
60433;BME280;46286;48.098;11.590;2022-09-16T05:25:02;94898.31;;;12.13;100.00
60433;BME280;46286;48.098;11.590;2022-09-16T05:27:31;94908.38;;;12.11;100.00
60433;BME280;46286;48.098;11.590;2022-09-16T05:29:58;94902.53;;;12.14;100.00
60433;BME280;46286;48.098;11.590;2022-09-16T05:32:23;94913.56;;;12.16;100.00
60433;BME280;46286;48.098;11.590;2022-09-16T05:34:49;94905.16;;;12.14;100.00
60433;BME280;46286;48.098;11.590;2022-09-16T05:37:16;94909.44;;;12.24;100.00
60433;BME280;46286;48.098;11.590;2022-09-16T05:39:41;94895.38;;;12.01;100.00
60433;BME280;46286;48.098;11.590;2022-09-16T05:42:08;94898.50;;;12.17;100.00
60433;BME280;46286;48.098;11.590;2022-09-16T05:44:34;94896.75;;;12.12;100.00
60433;BME280;46286;48.098;11.590;2022-09-16T05:46:59;94893.03;;;12.13;100.00
60433;BME280;46286;48.098;11.590;2022-09-16T05:49:25;94894.63;;;12.14;100.00
60433;BME280;46286;48.098;11.590;2022-09-16T05:51:51;94889.91;;;12.11;100.00
60433;BME280;46286;48.098;11.590;2022-09-16T05:54:17;94892.28;;;12.12;100.00
60433;BME280;46286;48.098;11.590;2022-09-16T05:56:43;94894.63;;;12.14;100.00
60433;BME280;46286;48.098;11.590;2022-09-16T05:59:10;94886.19;;;12.12;100.00
60433;BME280;46286;48.098;11.590;2022-09-16T06:01:36;94898.31;;;12.13;100.00
60433;BME280;46286;48.098;11.590;2022-09-16T06:04:04;94895.00;;;12.21;100.00
60433;BME280;46286;48.098;11.590;2022-09-16T06:06:32;94895.56;;;12.18;100.00
60433;BME280;46286;48.098;11.590;2022-09-16T06:08:59;94892.84;;;12.23;100.00
60433;BME280;46286;48.098;11.590;2022-09-16T06:11:26;94888.25;;;12.29;100.00
60433;BME280;46286;48.098;11.590;2022-09-16T06:13:54;94891.56;;;12.21;100.00
60433;BME280;46286;48.098;11.590;2022-09-16T06:16:21;94896.53;;;12.22;100.00
60433;BME280;46286;48.098;11.590;2022-09-16T06:18:46;94890.28;;;12.18;100.00
60433;BME280;46286;48.098;11.590;2022-09-16T06:21:12;94887.56;;;12.23;100.00
60433;BME280;46286;48.098;11.590;2022-09-16T06:23:38;94879.19;;;12.21;100.00
60433;BME280;46286;48.098;11.590;2022-09-16T06:26:10;94889.13;;;12.24;100.00
60433;BME280;46286;48.098;11.590;2022-09-16T06:28:37;94884.84;;;12.28;100.00
60433;BME280;46286;48.098;11.590;2022-09-16T06:31:09;94882.66;;;12.30;100.00
60433;BME280;46286;48.098;11.590;2022-09-16T06:33:35;94889.53;;;12.32;100.00
60433;BME280;46286;48.098;11.590;2022-09-16T06:36:05;94879.94;;;12.36;100.00
60433;BME280;46286;48.098;11.590;2022-09-16T06:38:31;94884.03;;;12.28;100.00
60433;BME280;46286;48.098;11.590;2022-09-16T06:40:58;94889.91;;;12.39;100.00
60433;BME280;46286;48.098;11.590;2022-09-16T06:43:24;94887.13;;;12.44;100.00
60433;BME280;46286;48.098;11.590;2022-09-16T06:45:50;94892.22;;;12.54;100.00
60433;BME280;46286;48.098;11.590;2022-09-16T06:48:15;94890.06;;;12.56;100.00
60433;BME280;46286;48.098;11.590;2022-09-16T06:50:40;94888.00;;;12.53;100.00
60433;BME280;46286;48.098;11.590;2022-09-16T06:53:06;94881.84;;;12.44;100.00
60433;BME280;46286;48.098;11.590;2022-09-16T06:55:31;94893.38;;;12.48;100.00
60433;BME280;46286;48.098;11.590;2022-09-16T06:57:57;94891.63;;;12.57;100.00
60433;BME280;46286;48.098;11.590;2022-09-16T07:00:22;94877.94;;;12.55;100.00
60433;BME280;46286;48.098;11.590;2022-09-16T07:02:48;94888.88;;;12.62;100.00
60433;BME280;46286;48.098;11.590;2022-09-16T07:05:13;94876.34;;;12.68;100.00
60433;BME280;46286;48.098;11.590;2022-09-16T07:07:39;94881.59;;;12.82;100.00
60433;BME280;46286;48.098;11.590;2022-09-16T07:10:06;94891.06;;;12.83;100.00
60433;BME280;46286;48.098;11.590;2022-09-16T07:12:31;94880.00;;;12.81;100.00
60433;BME280;46286;48.098;11.590;2022-09-16T07:14:57;94891.19;;;12.78;100.00
60433;BME280;46286;48.098;11.590;2022-09-16T07:17:22;94877.84;;;12.60;100.00
60433;BME280;46286;48.098;11.590;2022-09-16T07:19:52;94884.56;;;12.67;100.00
60433;BME280;46286;48.098;11.590;2022-09-16T07:22:18;94878.06;;;12.73;100.00
60433;BME280;46286;48.098;11.590;2022-09-16T07:24:43;94883.19;;;12.69;100.00
60433;BME280;46286;48.098;11.590;2022-09-16T07:27:10;94892.16;;;12.82;100.00
60433;BME280;46286;48.098;11.590;2022-09-16T07:29:36;94889.97;;;12.84;100.00
60433;BME280;46286;48.098;11.590;2022-09-16T07:32:01;94891.75;;;12.89;100.00
60433;BME280;46286;48.098;11.590;2022-09-16T07:34:27;94888.19;;;12.93;100.00
60433;BME280;46286;48.098;11.590;2022-09-16T07:36:52;94894.44;;;12.97;100.00
60433;BME280;46286;48.098;11.590;2022-09-16T07:39:18;94894.09;;;12.90;100.00
60433;BME280;46286;48.098;11.590;2022-09-16T07:41:45;94888.56;;;13.00;100.00
60433;BME280;46286;48.098;11.590;2022-09-16T07:44:14;94893.25;;;13.04;100.00
60433;BME280;46286;48.098;11.590;2022-09-16T07:46:40;94886.75;;;13.10;100.00
60433;BME280;46286;48.098;11.590;2022-09-16T07:49:07;94890.41;;;13.00;100.00
60433;BME280;46286;48.098;11.590;2022-09-16T07:51:34;94887.25;;;13.12;100.00
60433;BME280;46286;48.098;11.590;2022-09-16T07:54:06;94882.94;;;13.16;100.00
60433;BME280;46286;48.098;11.590;2022-09-16T07:56:34;94881.09;;;13.03;100.00
60433;BME280;46286;48.098;11.590;2022-09-16T07:59:03;94883.66;;;13.08;100.00
60433;BME280;46286;48.098;11.590;2022-09-16T08:01:29;94877.41;;;13.04;100.00
60433;BME280;46286;48.098;11.590;2022-09-16T08:03:58;94882.22;;;13.02;100.00
60433;BME280;46286;48.098;11.590;2022-09-16T08:06:27;94874.88;;;12.98;100.00
60433;BME280;46286;48.098;11.590;2022-09-16T08:08:56;94880.94;;;12.99;100.00
60433;BME280;46286;48.098;11.590;2022-09-16T08:11:27;94871.16;;;12.99;100.00
60433;BME280;46286;48.098;11.590;2022-09-16T08:13:52;94881.59;;;12.82;100.00
60433;BME280;46286;48.098;11.590;2022-09-16T08:16:20;94878.38;;;13.08;100.00
60433;BME280;46286;48.098;11.590;2022-09-16T08:18:49;94870.91;;;13.10;100.00
60433;BME280;46286;48.098;11.590;2022-09-16T08:21:20;94875.00;;;13.16;100.00
60433;BME280;46286;48.098;11.590;2022-09-16T08:23:46;94874.75;;;13.26;100.00
60433;BME280;46286;48.098;11.590;2022-09-16T08:26:13;94878.53;;;13.11;100.00
60433;BME280;46286;48.098;11.590;2022-09-16T08:28:40;94878.00;;;13.23;100.00
60433;BME280;46286;48.098;11.590;2022-09-16T08:31:07;94887.63;;;13.19;100.00
60433;BME280;46286;48.098;11.590;2022-09-16T08:33:33;94897.44;;;13.27;100.00
60433;BME280;46286;48.098;11.590;2022-09-16T08:38:28;94895.06;;;13.40;100.00
60433;BME280;46286;48.098;11.590;2022-09-16T08:43:52;94892.31;;;13.45;100.00
60433;BME280;46286;48.098;11.590;2022-09-16T08:51:53;94885.69;;;13.56;100.00
60433;BME280;46286;48.098;11.590;2022-09-16T08:54:46;94882.44;;;13.59;100.00
60433;BME280;46286;48.098;11.590;2022-09-16T08:57:17;94886.22;;;13.44;100.00
60433;BME280;46286;48.098;11.590;2022-09-16T08:59:58;94870.66;;;13.43;100.00
60433;BME280;46286;48.098;11.590;2022-09-16T09:02:41;94874.28;;;13.47;100.00
60433;BME280;46286;48.098;11.590;2022-09-16T09:05:28;94880.78;;;13.41;100.00
60433;BME280;46286;48.098;11.590;2022-09-16T09:08:11;94884.50;;;13.40;100.00
60433;BME280;46286;48.098;11.590;2022-09-16T09:19:12;94881.75;;;13.45;100.00
60433;BME280;46286;48.098;11.590;2022-09-16T09:21:48;94880.16;;;13.44;100.00
60433;BME280;46286;48.098;11.590;2022-09-16T09:27:06;94870.44;;;13.30;100.00
60433;BME280;46286;48.098;11.590;2022-09-16T09:29:48;94863.75;;;13.33;100.00
60433;BME280;46286;48.098;11.590;2022-09-16T09:32:45;94871.41;;;13.34;100.00
60433;BME280;46286;48.098;11.590;2022-09-16T09:40:44;94857.69;;;13.32;100.00
60433;BME280;46286;48.098;11.590;2022-09-16T09:43:23;94855.41;;;13.40;100.00
60433;BME280;46286;48.098;11.590;2022-09-16T09:46:11;94853.84;;;13.39;100.00
60433;BME280;46286;48.098;11.590;2022-09-16T09:48:45;94852.97;;;13.43;100.00
60433;BME280;46286;48.098;11.590;2022-09-16T09:51:18;94850.13;;;13.40;100.00
60433;BME280;46286;48.098;11.590;2022-09-16T09:53:51;94851.41;;;13.42;100.00
60433;BME280;46286;48.098;11.590;2022-09-16T09:56:25;94851.13;;;13.52;100.00
60433;BME280;46286;48.098;11.590;2022-09-16T09:59:44;94851.75;;;13.49;100.00
60433;BME280;46286;48.098;11.590;2022-09-16T10:01:44;94855.72;;;13.38;100.00
60433;BME280;46286;48.098;11.590;2022-09-16T10:04:15;94847.84;;;13.47;100.00
60433;BME280;46286;48.098;11.590;2022-09-16T10:06:42;94851.75;;;13.49;100.00
60433;BME280;46286;48.098;11.590;2022-09-16T10:09:14;94850.22;;;13.57;100.00
60433;BME280;46286;48.098;11.590;2022-09-16T10:11:49;94846.66;;;13.30;100.00
60433;BME280;46286;48.098;11.590;2022-09-16T10:14:33;94850.25;;;13.34;100.00
60433;BME280;46286;48.098;11.590;2022-09-16T10:17:02;94849.41;;;13.48;100.00
60433;BME280;46286;48.098;11.590;2022-09-16T10:19:29;94846.88;;;13.43;100.00
60433;BME280;46286;48.098;11.590;2022-09-16T10:22:08;94844.38;;;13.38;100.00
60433;BME280;46286;48.098;11.590;2022-09-16T10:24:37;94843.06;;;13.26;100.00
60433;BME280;46286;48.098;11.590;2022-09-16T10:27:24;94835.84;;;13.18;100.00
60433;BME280;46286;48.098;11.590;2022-09-16T10:30:11;94833.09;;;13.23;100.00
60433;BME280;46286;48.098;11.590;2022-09-16T10:33:00;94829.94;;;13.21;100.00
60433;BME280;46286;48.098;11.590;2022-09-16T10:35:29;94832.38;;;13.09;100.00
60433;BME280;46286;48.098;11.590;2022-09-16T10:38:17;94823.72;;;13.17;100.00
60433;BME280;46286;48.098;11.590;2022-09-16T10:40:54;94822.41;;;13.06;100.00
60433;BME280;46286;48.098;11.590;2022-09-16T10:43:23;94824.56;;;13.04;100.00
60433;BME280;46286;48.098;11.590;2022-09-16T10:45:51;94823.00;;;13.03;100.00
60433;BME280;46286;48.098;11.590;2022-09-16T10:48:24;94822.28;;;12.88;100.00
60433;BME280;46286;48.098;11.590;2022-09-16T10:50:53;94827.31;;;12.98;100.00
60433;BME280;46286;48.098;11.590;2022-09-16T10:53:30;94820.31;;;13.16;100.00
60433;BME280;46286;48.098;11.590;2022-09-16T10:55:58;94822.16;;;13.16;100.00
60433;BME280;46286;48.098;11.590;2022-09-16T10:58:24;94821.22;;;13.12;100.00
60433;BME280;46286;48.098;11.590;2022-09-16T11:20:14;94802.00;;;14.00;100.00
60433;BME280;46286;48.098;11.590;2022-09-16T11:34:09;94832.84;;;12.15;100.00
60433;BME280;46286;48.098;11.590;2022-09-16T11:42:01;94814.47;;;11.40;100.00
60433;BME280;46286;48.098;11.590;2022-09-16T11:44:44;94818.75;;;11.22;100.00
60433;BME280;46286;48.098;11.590;2022-09-16T11:50:40;94854.28;;;11.39;100.00
60433;BME280;46286;48.098;11.590;2022-09-16T11:53:28;94855.03;;;11.25;100.00
60433;BME280;46286;48.098;11.590;2022-09-16T11:58:57;94870.19;;;11.01;100.00
60433;BME280;46286;48.098;11.590;2022-09-16T12:01:44;94860.31;;;10.92;100.00
60433;BME280;46286;48.098;11.590;2022-09-16T12:07:19;94879.88;;;10.86;100.00
60433;BME280;46286;48.098;11.590;2022-09-16T12:09:53;94881.53;;;10.82;100.00
60433;BME280;46286;48.098;11.590;2022-09-16T12:12:28;94868.56;;;10.86;100.00
60433;BME280;46286;48.098;11.590;2022-09-16T12:15:04;94874.06;;;10.89;100.00
60433;BME280;46286;48.098;11.590;2022-09-16T12:17:35;94883.00;;;10.88;100.00
60433;BME280;46286;48.098;11.590;2022-09-16T12:20:19;94882.00;;;10.84;100.00
60433;BME280;46286;48.098;11.590;2022-09-16T12:23:11;94888.84;;;10.85;100.00
60433;BME280;46286;48.098;11.590;2022-09-16T12:25:44;94895.91;;;10.71;100.00
60433;BME280;46286;48.098;11.590;2022-09-16T12:28:22;94911.75;;;10.66;100.00
60433;BME280;46286;48.098;11.590;2022-09-16T12:31:00;94902.22;;;10.70;100.00
60433;BME280;46286;48.098;11.590;2022-09-16T12:33:32;94911.69;;;10.90;100.00
60433;BME280;46286;48.098;11.590;2022-09-16T12:36:15;94891.44;;;11.04;100.00
60433;BME280;46286;48.098;11.590;2022-09-16T12:38:42;94894.56;;;11.25;100.00
60433;BME280;46286;48.098;11.590;2022-09-16T12:49:26;94926.34;;;10.96;100.00
60433;BME280;46286;48.098;11.590;2022-09-16T12:52:09;94932.44;;;10.91;100.00
60433;BME280;46286;48.098;11.590;2022-09-16T12:55:00;94932.28;;;11.02;100.00
60433;BME280;46286;48.098;11.590;2022-09-16T13:00:11;94918.66;;;10.81;100.00
60433;BME280;46286;48.098;11.590;2022-09-16T13:02:42;94926.28;;;10.82;100.00
60433;BME280;46286;48.098;11.590;2022-09-16T13:05:14;94937.50;;;10.69;100.00
60433;BME280;46286;48.098;11.590;2022-09-16T13:07:47;94933.38;;;10.63;100.00
60433;BME280;46286;48.098;11.590;2022-09-16T13:10:22;94933.50;;;10.71;100.00
60433;BME280;46286;48.098;11.590;2022-09-16T13:12:52;94929.47;;;10.79;100.00
60433;BME280;46286;48.098;11.590;2022-09-16T13:15:24;94935.94;;;10.68;100.00
60433;BME280;46286;48.098;11.590;2022-09-16T13:17:50;94931.38;;;10.54;100.00
60433;BME280;46286;48.098;11.590;2022-09-16T13:20:29;94926.13;;;10.54;100.00
60433;BME280;46286;48.098;11.590;2022-09-16T13:23:17;94929.09;;;10.67;100.00
60433;BME280;46286;48.098;11.590;2022-09-16T13:25:52;94915.47;;;10.65;100.00
60433;BME280;46286;48.098;11.590;2022-09-16T13:28:25;94904.34;;;10.68;100.00
60433;BME280;46286;48.098;11.590;2022-09-16T13:30:51;94906.91;;;10.73;100.00
60433;BME280;46286;48.098;11.590;2022-09-16T13:35:44;94901.06;;;10.57;100.00
60433;BME280;46286;48.098;11.590;2022-09-16T13:41:01;94909.47;;;10.78;100.00
60433;BME280;46286;48.098;11.590;2022-09-16T13:46:11;94913.16;;;10.77;100.00
60433;BME280;46286;48.098;11.590;2022-09-16T13:49:11;94911.47;;;10.86;100.00
60433;BME280;46286;48.098;11.590;2022-09-16T13:51:42;94914.75;;;10.78;100.00
60433;BME280;46286;48.098;11.590;2022-09-16T13:54:26;94933.66;;;10.80;100.00
60433;BME280;46286;48.098;11.590;2022-09-16T13:59:39;94929.91;;;10.86;100.00
60433;BME280;46286;48.098;11.590;2022-09-16T14:05:43;94948.03;;;10.69;100.00
60433;BME280;46286;48.098;11.590;2022-09-16T14:13:47;94971.91;;;10.53;100.00
60433;BME280;46286;48.098;11.590;2022-09-16T14:18:59;94980.97;;;10.66;100.00
60433;BME280;46286;48.098;11.590;2022-09-16T14:21:26;94978.03;;;10.68;100.00
60433;BME280;46286;48.098;11.590;2022-09-16T14:23:51;94987.25;;;10.46;100.00
60433;BME280;46286;48.098;11.590;2022-09-16T14:26:20;94990.81;;;10.55;100.00
60433;BME280;46286;48.098;11.590;2022-09-16T14:28:46;94988.63;;;10.63;100.00
60433;BME280;46286;48.098;11.590;2022-09-16T14:31:16;94985.41;;;10.66;100.00
60433;BME280;46286;48.098;11.590;2022-09-16T14:33:53;94986.88;;;10.53;100.00
60433;BME280;46286;48.098;11.590;2022-09-16T14:36:30;94973.47;;;10.54;100.00
60433;BME280;46286;48.098;11.590;2022-09-16T14:38:59;94960.09;;;10.70;100.00
60433;BME280;46286;48.098;11.590;2022-09-16T14:41:35;94953.72;;;10.76;100.00
60433;BME280;46286;48.098;11.590;2022-09-16T14:44:31;94955.78;;;10.79;100.00
60433;BME280;46286;48.098;11.590;2022-09-16T14:49:25;94971.78;;;10.64;100.00
60433;BME280;46286;48.098;11.590;2022-09-16T14:51:55;94974.47;;;10.58;100.00
60433;BME280;46286;48.098;11.590;2022-09-16T14:54:24;94974.91;;;10.66;100.00
60433;BME280;46286;48.098;11.590;2022-09-16T14:57:05;94973.47;;;10.54;100.00
60433;BME280;46286;48.098;11.590;2022-09-16T14:59:33;94967.13;;;10.55;100.00
60433;BME280;46286;48.098;11.590;2022-09-16T15:04:32;94970.28;;;10.57;100.00
60433;BME280;46286;48.098;11.590;2022-09-16T15:07:06;94978.63;;;10.65;100.00
60433;BME280;46286;48.098;11.590;2022-09-16T15:09:44;94974.47;;;10.58;100.00
60433;BME280;46286;48.098;11.590;2022-09-16T15:12:18;94970.84;;;10.54;100.00
60433;BME280;46286;48.098;11.590;2022-09-16T15:14:45;94978.06;;;10.44;100.00
60433;BME280;46286;48.098;11.590;2022-09-16T15:17:17;94977.16;;;10.53;100.00
60433;BME280;46286;48.098;11.590;2022-09-16T15:19:51;94974.31;;;10.50;100.00
60433;BME280;46286;48.098;11.590;2022-09-16T15:22:19;94969.56;;;10.52;100.00
60433;BME280;46286;48.098;11.590;2022-09-16T15:24:49;94964.97;;;10.38;100.00
60433;BME280;46286;48.098;11.590;2022-09-16T15:27:22;94962.59;;;10.37;100.00
60433;BME280;46286;48.098;11.590;2022-09-16T15:29:53;94971.47;;;10.46;100.00
60433;BME280;46286;48.098;11.590;2022-09-16T15:32:21;94973.00;;;10.47;100.00